Time;durP1;ratioP1;P1;durP2;ratioP2;P2;SDS_P1;SDS_P2;PMS_P1;PMS_P2;Temp;Humidity;BMP_temperature;BMP_pressure;BME280_temperature;BME280_humidity;BME280_pressure;Samples;Min_cycle;Max_cycle;Signal;HPM_P1;HPM_P2
2022/07/06 00:02:03;;;;;;;5.70;3.70;;;;;;;18.93;62.08;98760.26;105997;1276;96543;-66
2022/07/06 00:04:32;;;;;;;9.30;3.90;;;;;;;18.90;62.05;98778.46;105988;1276;96318;-66
2022/07/06 00:07:01;;;;;;;6.00;3.00;;;;;;;18.88;62.22;98788.94;105873;1276;112483;-66
2022/07/06 00:09:30;;;;;;;5.50;3.50;;;;;;;18.85;62.12;98799.36;105941;1276;97969;-65
2022/07/06 00:12:00;;;;;;;4.90;2.90;;;;;;;18.81;62.08;98812.16;105892;1276;108391;-65
2022/07/06 00:14:28;;;;;;;6.20;2.80;;;;;;;18.79;62.11;98802.29;105897;1276;97914;-65
2022/07/06 00:16:59;;;;;;;5.60;3.00;;;;;;;18.79;62.44;98776.66;105948;1277;97877;-65
2022/07/06 00:19:28;;;;;;;14.70;3.10;;;;;;;18.77;62.18;98755.11;105905;1276;111384;-65
2022/07/06 00:21:57;;;;;;;3.00;2.40;;;;;;;18.75;62.46;98756.81;105924;1276;97904;-64
2022/07/06 00:24:28;;;;;;;7.20;2.70;;;;;;;18.73;62.47;98756.78;105861;1276;108419;-65
2022/07/06 00:26:57;;;;;;;6.20;3.50;;;;;;;18.72;62.50;98745.95;105858;1276;97864;-66
2022/07/06 00:29:26;;;;;;;5.90;3.20;;;;;;;18.72;62.58;98740.59;105855;1276;97755;-64
2022/07/06 00:31:55;;;;;;;5.90;3.00;;;;;;;18.72;62.38;98737.60;105777;1277;112950;-65
2022/07/06 00:34:24;;;;;;;4.30;2.70;;;;;;;18.69;62.58;98731.56;105800;1278;98080;-65
2022/07/06 00:36:53;;;;;;;7.70;2.90;;;;;;;18.67;62.44;98719.59;105851;1277;107807;-65
2022/07/06 00:39:23;;;;;;;6.70;3.00;;;;;;;18.65;62.66;98710.63;105796;1278;97956;-65
2022/07/06 00:41:52;;;;;;;21.20;11.70;;;;;;;18.64;62.75;98698.55;105862;1277;99296;-66
2022/07/06 00:44:21;;;;;;;10.70;5.20;;;;;;;18.63;62.64;98686.46;105896;1277;113760;-65
2022/07/06 00:46:50;;;;;;;5.90;3.20;;;;;;;18.62;62.75;98704.20;105882;1276;99229;-65
2022/07/06 00:52:07;;;;;;;3.40;2.50;;;;;;;18.59;62.97;98724.20;105836;1276;99254;-65
2022/07/06 00:54:39;;;;;;;5.70;2.80;;;;;;;18.57;62.93;98726.09;105783;1276;99231;-65
2022/07/06 00:57:09;;;;;;;6.70;2.90;;;;;;;18.54;62.95;98726.23;105819;1277;112849;-65
2022/07/06 00:59:36;;;;;;;3.30;2.50;;;;;;;18.52;62.92;98706.90;105848;1276;99236;-65
2022/07/06 01:02:06;;;;;;;4.40;2.60;;;;;;;18.50;63.11;98692.43;105901;1276;108261;-64
2022/07/06 01:04:35;;;;;;;8.50;3.30;;;;;;;18.47;63.09;98690.95;105875;1276;99245;-66
2022/07/06 01:07:04;;;;;;;5.30;3.00;;;;;;;18.45;63.10;98706.23;105777;1276;99314;-66
2022/07/06 01:09:32;;;;;;;3.20;2.60;;;;;;;18.44;63.29;98719.42;105881;1276;111106;-67
2022/07/06 01:12:01;;;;;;;4.90;2.40;;;;;;;18.43;63.18;98717.79;105860;1276;99319;-68
2022/07/06 01:14:33;;;;;;;5.70;2.30;;;;;;;18.41;63.21;98713.27;105873;1276;107754;-66
2022/07/06 01:17:03;;;;;;;3.80;2.40;;;;;;;18.40;63.38;98708.39;105801;1276;99299;-66
2022/07/06 01:19:31;;;;;;;2.60;2.20;;;;;;;18.38;63.34;98706.71;105854;1276;99229;-66
2022/07/06 01:22:02;;;;;;;4.50;2.60;;;;;;;18.32;63.46;98694.73;105889;1276;113378;-67
2022/07/06 01:24:30;;;;;;;3.40;2.20;;;;;;;18.29;63.34;98677.66;105928;1276;96561;-67
2022/07/06 01:26:58;;;;;;;4.40;2.50;;;;;;;18.26;63.59;98672.05;105955;1276;108442;-68
2022/07/06 01:29:28;;;;;;;4.70;2.80;;;;;;;18.25;63.60;98680.23;105880;1276;99236;-69
2022/07/06 01:31:56;;;;;;;5.30;2.60;;;;;;;18.23;63.61;98682.24;105896;1276;99257;-66
2022/07/06 01:34:25;;;;;;;3.20;2.50;;;;;;;18.22;63.75;98676.33;105733;1276;115428;-67
2022/07/06 01:36:54;;;;;;;3.80;2.50;;;;;;;18.20;63.72;98675.85;105930;1276;99237;-66
2022/07/06 01:39:24;;;;;;;3.00;2.40;;;;;;;18.18;63.68;98674.45;105909;1276;108742;-67
2022/07/06 01:41:52;;;;;;;5.10;2.20;;;;;;;18.15;63.93;98677.25;105857;1276;99320;-67
2022/07/06 01:44:21;;;;;;;3.40;2.30;;;;;;;18.12;63.90;98679.06;105812;1276;99260;-66
2022/07/06 01:46:49;;;;;;;6.00;2.10;;;;;;;18.11;63.80;98679.16;105754;1276;113413;-66
2022/07/06 01:49:17;;;;;;;3.30;2.10;;;;;;;18.05;63.97;98673.55;105805;1276;99330;-67
2022/07/06 01:51:45;;;;;;;7.20;2.60;;;;;;;18.02;63.94;98666.98;105821;1276;108403;-67
2022/07/06 01:54:14;;;;;;;2.30;1.60;;;;;;;17.99;64.29;98664.27;105746;1279;99317;-66
2022/07/06 01:56:43;;;;;;;3.10;2.30;;;;;;;17.96;64.22;98661.52;105894;1276;99257;-69
2022/07/06 01:59:11;;;;;;;2.60;1.80;;;;;;;17.94;64.46;98668.02;105915;1276;115522;-67
2022/07/06 02:01:40;;;;;;;4.60;2.00;;;;;;;17.93;64.25;98671.58;106007;1276;99304;-64
2022/07/06 02:04:09;;;;;;;1.80;1.60;;;;;;;17.91;64.42;98678.20;105905;1276;108577;-65
2022/07/06 02:06:39;;;;;;;2.70;1.80;;;;;;;17.90;64.60;98684.64;105898;1276;99229;-67
2022/07/06 02:09:07;;;;;;;2.80;1.80;;;;;;;17.89;64.51;98695.50;105905;1276;99238;-66
2022/07/06 02:11:35;;;;;;;2.50;1.80;;;;;;;17.87;64.51;98704.81;105853;1276;112729;-66
2022/07/06 02:14:05;;;;;;;2.40;2.20;;;;;;;17.86;64.51;98720.02;105935;1276;99241;-65
2022/07/06 02:16:35;;;;;;;2.40;2.00;;;;;;;17.84;64.78;98734.36;105940;1276;107732;-66
2022/07/06 02:19:03;;;;;;;3.50;2.10;;;;;;;17.83;64.91;98744.89;105897;1276;99324;-66
2022/07/06 02:21:35;;;;;;;5.00;2.00;;;;;;;17.83;64.68;98749.94;105882;1276;98967;-65
2022/07/06 02:24:04;;;;;;;4.00;2.60;;;;;;;17.77;64.77;98756.17;105902;1276;113476;-66
2022/07/06 02:26:32;;;;;;;2.20;2.00;;;;;;;17.75;65.05;98757.41;105848;1276;99311;-67
2022/07/06 02:29:02;;;;;;;4.20;2.30;;;;;;;17.76;64.94;98762.89;106053;1266;108887;-67
2022/07/06 02:31:32;;;;;;;3.10;1.80;;;;;;;17.73;64.99;98761.09;105952;1276;99291;-66
2022/07/06 02:34:00;;;;;;;5.10;2.00;;;;;;;17.67;65.15;98763.60;105858;1276;98330;-71
2022/07/06 02:36:29;;;;;;;2.10;1.50;;;;;;;17.65;65.11;98762.81;105859;1276;110738;-66
2022/07/06 02:38:59;;;;;;;4.80;1.80;;;;;;;17.66;65.47;98762.88;105864;1276;99252;-66
2022/07/06 02:41:27;;;;;;;2.20;1.80;;;;;;;17.67;65.35;98767.39;105849;1276;107348;-67
2022/07/06 02:43:55;;;;;;;4.90;1.70;;;;;;;17.66;65.30;98771.59;105888;1276;99303;-68
2022/07/06 02:46:25;;;;;;;2.60;1.70;;;;;;;17.62;65.03;98773.16;105973;1276;99312;-66
2022/07/06 02:48:55;;;;;;;5.60;2.10;;;;;;;17.56;65.56;98776.61;106051;1276;112793;-69
2022/07/06 02:51:24;;;;;;;3.10;1.60;;;;;;;17.56;65.64;98779.97;106029;1276;96809;-69
2022/07/06 02:53:55;;;;;;;6.30;1.50;;;;;;;17.57;65.50;98780.14;105861;1276;108509;-66
2022/07/06 02:56:25;;;;;;;3.20;1.50;;;;;;;17.55;65.75;98782.62;106001;1276;99323;-66
2022/07/06 02:58:55;;;;;;;4.30;1.80;;;;;;;17.55;65.68;98785.67;105838;1276;99346;-67
2022/07/06 03:01:28;;;;;;;3.20;1.60;;;;;;;17.54;65.72;98780.06;105950;1276;113090;-67
2022/07/06 03:03:56;;;;;;;3.20;1.70;;;;;;;17.53;65.98;98777.30;105937;1276;99288;-68
2022/07/06 03:06:27;;;;;;;4.00;1.90;;;;;;;17.52;65.82;98778.02;105894;1276;108728;-69
2022/07/06 03:08:57;;;;;;;6.20;2.10;;;;;;;17.49;66.00;98777.74;105764;1276;97837;-67
2022/07/06 03:11:25;;;;;;;3.00;1.90;;;;;;;17.49;66.00;98772.02;105874;1276;99171;-66
2022/07/06 03:13:55;;;;;;;5.40;2.00;;;;;;;17.47;65.90;98770.77;105820;1276;113404;-67
2022/07/06 03:16:23;;;;;;;5.60;1.90;;;;;;;17.45;65.96;98769.59;105869;1277;97627;-67
2022/07/06 03:18:53;;;;;;;3.00;1.70;;;;;;;17.42;65.77;98772.37;105843;1278;110909;-68
2022/07/06 03:21:23;;;;;;;4.00;2.20;;;;;;;17.39;66.08;98774.07;105861;1278;96707;-67
2022/07/06 03:23:51;;;;;;;2.40;1.90;;;;;;;17.38;65.88;98775.14;105969;1276;99193;-68
2022/07/06 03:26:26;;;;;;;2.40;2.10;;;;;;;17.33;66.24;98778.35;105934;1278;114368;-67
2022/07/06 03:28:54;;;;;;;4.30;2.20;;;;;;;17.31;66.22;98775.93;105927;1278;99976;-68
2022/07/06 03:31:22;;;;;;;2.50;1.90;;;;;;;17.28;66.15;98776.42;105939;1278;108523;-65
2022/07/06 03:33:52;;;;;;;3.70;2.20;;;;;;;17.26;66.15;98778.87;105957;1276;99116;-68
2022/07/06 03:36:20;;;;;;;3.80;2.00;;;;;;;17.25;66.20;98782.19;105805;1279;98330;-67
2022/07/06 03:38:50;;;;;;;4.10;2.30;;;;;;;17.24;66.39;98784.13;105906;1277;113399;-68
2022/07/06 03:41:18;;;;;;;2.00;1.60;;;;;;;17.21;66.31;98787.45;105968;1276;99246;-69
2022/07/06 03:43:46;;;;;;;3.20;2.20;;;;;;;17.20;66.46;98787.40;105875;1276;108401;-67
2022/07/06 03:46:14;;;;;;;2.40;2.20;;;;;;;17.20;66.59;98784.91;105901;1277;99330;-67
2022/07/06 03:48:44;;;;;;;2.90;2.30;;;;;;;17.18;66.61;98783.80;105743;1277;222527;-68
2022/07/06 03:51:14;;;;;;;3.10;2.20;;;;;;;17.18;66.62;98785.85;105948;1276;113364;-67
2022/07/06 03:53:42;;;;;;;2.20;2.00;;;;;;;17.16;66.48;98789.40;105965;1276;99199;-67
2022/07/06 03:56:27;;;;;;;2.60;2.20;;;;;;;17.14;66.60;98790.20;105924;1277;107661;-68
2022/07/06 03:59:02;;;;;;;1.90;1.80;;;;;;;17.12;66.64;98795.77;105970;1277;96651;-69
2022/07/06 04:01:32;;;;;;;3.00;2.10;;;;;;;17.10;66.80;98792.94;105960;1277;96617;-68
2022/07/06 04:04:03;;;;;;;3.40;2.20;;;;;;;17.09;66.97;98793.73;105954;1276;112787;-67
2022/07/06 04:06:31;;;;;;;3.10;2.50;;;;;;;17.09;66.63;98791.79;105916;1276;99336;-68
2022/07/06 04:09:04;;;;;;;3.30;2.20;;;;;;;17.07;66.84;98797.19;105893;1276;107976;-67
2022/07/06 04:11:31;;;;;;;2.60;1.70;;;;;;;17.04;67.07;98797.41;105888;1276;99247;-69
2022/07/06 04:14:01;;;;;;;2.40;2.20;;;;;;;17.04;67.12;98800.73;106009;1278;96735;-69
2022/07/06 04:16:29;;;;;;;3.90;2.00;;;;;;;17.04;67.20;98806.41;105916;1276;112778;-69
2022/07/06 04:18:59;;;;;;;1.90;1.80;;;;;;;17.06;67.14;98809.85;106024;1276;99269;-70
2022/07/06 04:21:27;;;;;;;2.30;2.10;;;;;;;17.05;67.19;98815.45;105972;1278;108709;-69
2022/07/06 04:23:57;;;;;;;4.20;2.10;;;;;;;17.04;67.18;98811.31;105952;1278;99309;-69
2022/07/06 04:26:25;;;;;;;2.40;2.20;;;;;;;17.03;67.09;98815.00;106023;1276;99240;-68
2022/07/06 04:28:53;;;;;;;2.20;2.00;;;;;;;17.01;67.34;98814.83;105993;1276;113250;-69
2022/07/06 04:31:23;;;;;;;3.00;2.40;;;;;;;17.01;67.30;98820.55;106022;1276;98994;-67
2022/07/06 04:33:51;;;;;;;3.10;2.20;;;;;;;17.02;67.26;98824.56;105965;1276;107570;-67
2022/07/06 04:36:21;;;;;;;4.90;2.60;;;;;;;17.01;67.14;98822.84;105962;1276;97681;-67
2022/07/06 04:38:51;;;;;;;3.00;2.00;;;;;;;17.00;67.38;98817.46;106003;1276;99275;-67
2022/07/06 04:41:21;;;;;;;2.10;1.90;;;;;;;16.98;67.53;98816.41;105898;1276;113353;-67
2022/07/06 04:43:49;;;;;;;2.50;2.30;;;;;;;16.95;67.63;98819.69;105959;1276;100359;-67
2022/07/06 04:46:16;;;;;;;2.70;2.20;;;;;;;16.94;67.54;98829.40;105952;1276;108335;-68
2022/07/06 04:48:47;;;;;;;2.20;2.00;;;;;;;16.95;67.91;98834.37;106018;1276;99246;-68
2022/07/06 04:51:17;;;;;;;2.00;1.90;;;;;;;16.96;67.80;98835.48;105993;1276;99225;-68
2022/07/06 04:53:47;;;;;;;2.60;2.30;;;;;;;16.95;67.70;98843.65;105930;1276;113791;-69
2022/07/06 04:56:17;;;;;;;4.50;2.50;;;;;;;16.93;67.84;98845.13;105973;1276;98109;-64
2022/07/06 04:58:46;;;;;;;4.60;2.50;;;;;;;16.90;67.95;98846.73;105976;1276;108503;-68
2022/07/06 05:01:16;;;;;;;2.70;2.40;;;;;;;16.89;67.75;98845.39;105973;1276;99246;-67
2022/07/06 05:03:46;;;;;;;2.80;2.50;;;;;;;16.90;67.62;98845.86;105901;1276;99218;-67
2022/07/06 05:06:15;;;;;;;3.60;2.50;;;;;;;16.88;67.73;98847.77;105877;1276;113532;-65
2022/07/06 05:08:48;;;;;;;2.90;2.60;;;;;;;16.84;67.72;98853.73;105871;1276;99164;-64
2022/07/06 05:11:18;;;;;;;5.20;2.80;;;;;;;16.80;67.71;98854.65;105843;1278;108311;-67
2022/07/06 05:13:46;;;;;;;2.90;2.60;;;;;;;16.79;67.88;98860.15;105862;1279;96714;-64
2022/07/06 05:16:16;;;;;;;3.10;2.80;;;;;;;16.78;67.95;98858.29;105894;1276;96676;-65
2022/07/06 05:18:44;;;;;;;6.30;3.20;;;;;;;16.78;67.88;98862.26;105973;1277;112729;-65
2022/07/06 05:21:14;;;;;;;3.70;2.70;;;;;;;16.77;68.04;98866.95;105951;1278;99275;-66
2022/07/06 05:23:42;;;;;;;3.60;2.70;;;;;;;16.77;68.12;98864.80;105892;1278;110720;-65
2022/07/06 05:26:10;;;;;;;4.60;3.00;;;;;;;16.77;68.02;98869.36;105879;1278;99313;-65
2022/07/06 05:28:40;;;;;;;3.70;2.50;;;;;;;16.75;68.03;98869.18;105835;1276;100038;-67
2022/07/06 05:31:10;;;;;;;3.70;3.00;;;;;;;16.73;68.14;98868.09;105843;1277;113336;-67
2022/07/06 05:33:40;;;;;;;4.00;3.00;;;;;;;16.73;68.23;98869.73;105957;1279;99257;-67
2022/07/06 05:36:12;;;;;;;3.10;2.80;;;;;;;16.71;68.13;98875.10;105979;1278;108409;-67
2022/07/06 05:38:40;;;;;;;2.90;2.60;;;;;;;16.71;68.28;98876.77;105919;1278;99179;-67
2022/07/06 05:41:10;;;;;;;4.00;2.90;;;;;;;16.71;68.18;98882.13;105975;1279;99285;-66
2022/07/06 05:43:39;;;;;;;5.70;2.80;;;;;;;16.70;68.37;98882.24;105923;1278;113223;-65
2022/07/06 05:46:12;;;;;;;2.80;2.40;;;;;;;16.68;68.47;98887.20;105918;1276;96627;-66
2022/07/06 05:51:33;;;;;;;5.00;2.80;;;;;;;16.72;68.58;98893.83;105932;1278;99931;-67
2022/07/06 05:54:01;;;;;;;5.00;2.70;;;;;;;16.74;68.29;98892.07;105922;1276;96736;-66
2022/07/06 05:56:32;;;;;;;3.80;2.80;;;;;;;16.76;68.64;98893.20;105881;1276;113319;-67
2022/07/06 05:59:02;;;;;;;3.70;3.10;;;;;;;16.78;68.58;98892.88;105910;1279;99415;-65
2022/07/06 06:01:30;;;;;;;3.50;2.90;;;;;;;16.81;68.48;98900.19;105935;1278;108399;-66
2022/07/06 06:04:00;;;;;;;3.90;3.00;;;;;;;16.81;68.54;98901.43;105883;1278;98374;-68
2022/07/06 06:06:31;;;;;;;5.10;3.10;;;;;;;16.81;68.47;98908.65;105940;1280;99252;-67
2022/07/06 06:09:01;;;;;;;6.00;3.40;;;;;;;16.82;68.62;98909.66;105972;1279;112399;-67
2022/07/06 06:11:31;;;;;;;5.80;2.90;;;;;;;16.83;68.56;98912.08;105935;1278;99255;-67
2022/07/06 06:13:59;;;;;;;3.80;2.50;;;;;;;16.84;68.69;98911.06;105908;1279;108447;-68
2022/07/06 06:16:29;;;;;;;3.20;2.80;;;;;;;16.85;68.73;98913.27;105905;1279;97918;-67
2022/07/06 06:18:59;;;;;;;6.30;2.80;;;;;;;16.86;68.59;98915.84;105963;1276;99221;-65
2022/07/06 06:21:28;;;;;;;4.30;2.80;;;;;;;16.88;68.60;98917.84;106006;1276;113698;-66
2022/07/06 06:23:58;;;;;;;3.40;2.80;;;;;;;16.90;68.58;98918.29;105913;1276;99358;-67
2022/07/06 06:26:26;;;;;;;3.70;3.10;;;;;;;16.93;68.79;98917.05;105945;1276;108787;-67
2022/07/06 06:28:56;;;;;;;3.50;2.50;;;;;;;16.97;68.62;98913.90;105965;1276;99226;-66
2022/07/06 06:31:24;;;;;;;4.40;2.70;;;;;;;17.00;68.75;98920.58;105958;1276;99339;-67
2022/07/06 06:33:54;;;;;;;5.20;2.60;;;;;;;17.05;68.86;98920.48;105858;1276;113952;-67
2022/07/06 06:36:24;;;;;;;6.40;3.10;;;;;;;17.09;68.95;98919.47;105925;1276;96599;-67
2022/07/06 06:38:54;;;;;;;6.00;2.60;;;;;;;17.15;68.73;98925.15;105866;1276;108658;-67
2022/07/06 06:41:24;;;;;;;5.60;3.10;;;;;;;17.24;68.90;98923.53;105944;1276;96704;-67
2022/07/06 06:43:54;;;;;;;2.90;2.60;;;;;;;17.30;69.08;98933.11;106000;1278;100295;-68
2022/07/06 06:46:24;;;;;;;4.30;3.00;;;;;;;17.35;68.93;98937.29;105959;1279;113535;-68
2022/07/06 06:48:57;;;;;;;6.30;3.30;;;;;;;17.36;68.93;98940.55;105899;1278;99328;-67
2022/07/06 06:51:25;;;;;;;2.70;2.40;;;;;;;17.39;68.96;98947.80;105959;1278;108399;-66
2022/07/06 06:53:55;;;;;;;3.70;2.70;;;;;;;17.40;68.98;98951.61;106014;1276;99234;-67
2022/07/06 06:56:23;;;;;;;2.80;2.60;;;;;;;17.44;69.08;98958.23;105957;1279;96601;-66
2022/07/06 06:58:53;;;;;;;6.10;2.90;;;;;;;17.50;68.90;98969.66;105893;1276;113112;-69
2022/07/06 07:01:43;;;;;;;3.30;2.70;;;;;;;17.55;68.96;98968.36;105947;1277;97639;-67
2022/07/06 07:04:29;;;;;;;5.10;2.40;;;;;;;17.64;68.85;98971.95;105900;1277;106975;-68
2022/07/06 07:06:59;;;;;;;3.10;2.60;;;;;;;17.87;68.97;98971.00;105919;1277;99190;-68
2022/07/06 07:09:27;;;;;;;3.30;2.50;;;;;;;18.31;68.34;98974.48;105879;1276;99940;-69
2022/07/06 07:11:55;;;;;;;3.70;2.60;;;;;;;18.38;68.48;98974.42;105904;1277;113351;-67
2022/07/06 07:14:27;;;;;;;3.00;2.40;;;;;;;18.97;67.93;98970.11;105894;1278;96597;-67
2022/07/06 07:16:57;;;;;;;3.40;2.20;;;;;;;19.26;68.09;98968.91;105894;1277;107819;-66
2022/07/06 07:19:25;;;;;;;2.40;2.20;;;;;;;19.62;68.01;98972.02;105904;1278;96760;-67
2022/07/06 07:21:54;;;;;;;3.00;2.20;;;;;;;19.72;68.16;98980.10;106001;1278;99092;-67
2022/07/06 07:24:22;;;;;;;3.20;2.20;;;;;;;19.68;68.47;98981.39;105882;1278;112992;-68
2022/07/06 07:26:52;;;;;;;7.80;2.80;;;;;;;20.75;66.96;98973.88;105905;1280;99334;-68
2022/07/06 07:29:22;;;;;;;2.40;2.10;;;;;;;21.80;66.45;98965.88;105935;1278;108442;-68
2022/07/06 07:31:52;;;;;;;4.20;1.80;;;;;;;21.87;67.23;98977.52;105993;1278;96657;-65
2022/07/06 07:34:20;;;;;;;2.20;1.80;;;;;;;22.14;67.19;98976.30;105976;1278;99193;-63
2022/07/06 07:36:50;;;;;;;3.30;1.90;;;;;;;22.25;67.22;98981.77;105993;1279;114045;-66
2022/07/06 07:39:21;;;;;;;1.60;1.50;;;;;;;23.69;65.79;98977.69;106017;1278;99356;-65
2022/07/06 07:41:51;;;;;;;3.20;1.70;;;;;;;25.02;65.06;98977.49;105948;1278;108841;-67
2022/07/06 07:44:21;;;;;;;1.70;1.50;;;;;;;25.95;65.47;98980.31;105901;1279;99240;-67
2022/07/06 07:46:49;;;;;;;6.60;1.50;;;;;;;26.37;65.31;98978.89;105909;1278;96649;-67
2022/07/06 07:49:22;;;;;;;1.30;1.20;;;;;;;26.00;65.91;98989.66;105950;1279;113261;-67
2022/07/06 07:51:53;;;;;;;3.80;1.30;;;;;;;25.46;66.02;98993.56;105965;1279;99309;-67
2022/07/06 07:54:21;;;;;;;1.70;1.40;;;;;;;25.18;65.72;98996.73;105909;1279;108427;-68
2022/07/06 07:56:52;;;;;;;3.90;1.50;;;;;;;25.08;65.74;98997.06;105866;1278;96600;-68
2022/07/06 07:59:22;;;;;;;3.00;1.70;;;;;;;25.40;65.05;99002.59;105884;1278;99261;-67
2022/07/06 08:01:50;;;;;;;3.60;1.40;;;;;;;25.51;64.66;98997.30;105898;1278;113429;-67
2022/07/06 08:04:20;;;;;;;5.20;1.70;;;;;;;25.67;64.51;98999.93;105892;1276;99571;-66
2022/07/06 08:06:50;;;;;;;2.40;1.70;;;;;;;25.76;64.48;98999.08;105852;1276;108389;-66
2022/07/06 08:09:30;;;;;;;5.50;1.60;;;;;;;25.93;63.99;99004.77;105881;1277;99192;-67
2022/07/06 08:12:00;;;;;;;3.10;1.80;;;;;;;25.99;64.09;99003.50;105892;1277;99074;-67
2022/07/06 08:14:28;;;;;;;4.00;1.50;;;;;;;26.45;63.64;99006.45;105866;1277;113461;-67
2022/07/06 08:16:56;;;;;;;2.70;1.90;;;;;;;27.09;62.96;99005.59;105935;1277;99339;-68
2022/07/06 08:19:24;;;;;;;4.80;1.80;;;;;;;27.91;62.36;99003.11;105881;1278;108138;-67
2022/07/06 08:21:53;;;;;;;1.90;1.60;;;;;;;28.58;62.01;99000.23;105905;1278;99338;-67
2022/07/06 08:24:21;;;;;;;1.50;1.40;;;;;;;28.90;62.50;99001.11;105887;1277;96711;-68
2022/07/06 08:26:51;;;;;;;2.80;1.50;;;;;;;29.50;62.00;99002.11;105863;1276;113286;-67
2022/07/06 08:29:19;;;;;;;1.30;1.20;;;;;;;30.06;61.55;99002.36;105870;1276;96978;-68
2022/07/06 08:31:48;;;;;;;4.80;1.60;;;;;;;30.59;61.16;99001.35;105840;1276;108310;-68
2022/07/06 08:34:36;;;;;;;3.90;1.30;;;;;;;30.33;61.20;99008.27;105907;1278;99255;-68
2022/07/06 08:37:04;;;;;;;1.80;1.70;;;;;;;29.71;61.23;99012.09;105906;1278;99181;-67
2022/07/06 08:39:34;;;;;;;4.90;1.80;;;;;;;29.24;61.15;99018.35;105912;1278;112746;-69
2022/07/06 08:42:09;;;;;;;1.50;1.40;;;;;;;29.09;60.53;99015.21;105931;1278;99358;-68
2022/07/06 08:44:39;;;;;;;5.10;2.10;;;;;;;28.84;59.97;99020.98;105949;1279;107697;-68
2022/07/06 08:47:10;;;;;;;5.10;1.50;;;;;;;28.83;59.28;99023.19;105989;1278;96631;-68
2022/07/06 08:49:42;;;;;;;3.40;1.50;;;;;;;29.08;59.01;99018.27;105946;1276;99323;-67
2022/07/06 08:52:12;;;;;;;5.10;1.70;;;;;;;28.53;58.70;99021.92;105935;1278;112739;-68
2022/07/06 08:54:43;;;;;;;4.90;1.70;;;;;;;27.88;58.57;99034.39;105974;1279;99707;-66
2022/07/06 08:57:13;;;;;;;2.50;1.40;;;;;;;27.50;58.53;99033.30;105855;1279;108558;-67
2022/07/06 08:59:42;;;;;;;4.90;2.10;;;;;;;27.52;58.04;99034.84;105892;1278;99241;-67
2022/07/06 09:02:16;;;;;;;6.00;1.90;;;;;;;27.49;57.57;99037.27;105931;1277;99238;-68
2022/07/06 09:04:47;;;;;;;2.90;1.60;;;;;;;27.88;57.29;99033.30;105909;1277;112745;-66
2022/07/06 09:07:19;;;;;;;3.30;1.40;;;;;;;28.16;56.91;99040.84;105855;1276;99168;-67
2022/07/06 09:10:09;;;;;;;3.20;1.90;;;;;;;27.97;56.64;99044.89;105840;1277;108345;-67
2022/07/06 09:12:39;;;;;;;4.10;1.50;;;;;;;27.87;56.47;99048.14;105862;1276;96636;-66
2022/07/06 09:15:10;;;;;;;4.40;1.70;;;;;;;27.63;56.42;99049.08;105985;1276;99308;-66
2022/07/06 09:17:42;;;;;;;1.80;1.60;;;;;;;27.60;55.85;99049.38;105966;1278;112667;-67
2022/07/06 09:20:12;;;;;;;3.10;1.50;;;;;;;27.42;56.07;99052.45;105962;1278;97726;-68
2022/07/06 09:22:42;;;;;;;3.80;1.50;;;;;;;27.11;55.70;99054.48;105958;1279;108245;-67
2022/07/06 09:25:14;;;;;;;4.60;1.70;;;;;;;26.85;55.28;99054.02;105931;1278;96677;-67
2022/07/06 09:27:50;;;;;;;;;;;;;;;26.84;54.89;99057.21;105982;1279;99243;-67
2022/07/06 09:30:25;;;;;;;4.00;1.60;;;;;;;27.13;54.60;99064.66;105926;1278;113932;-66
2022/07/06 09:32:58;;;;;;;5.80;1.80;;;;;;;27.00;54.90;99061.46;106005;1276;99764;-66
2022/07/06 09:35:41;;;;;;;6.70;1.80;;;;;;;26.55;54.12;99068.13;105956;1276;107672;-66
2022/07/06 09:38:14;;;;;;;5.50;1.80;;;;;;;25.94;53.93;99070.12;105988;1276;99393;-68
2022/07/06 09:40:45;;;;;;;2.40;1.60;;;;;;;25.57;53.69;99066.55;105987;1279;99342;-67
2022/07/06 09:43:22;;;;;;;2.90;1.70;;;;;;;25.23;53.71;99072.23;106023;1277;113452;-69
2022/07/06 09:45:50;;;;;;;3.00;1.70;;;;;;;25.15;53.69;99067.41;105902;1276;99290;-68
2022/07/06 09:48:25;;;;;;;3.40;1.80;;;;;;;25.27;53.62;99068.85;105872;1279;108352;-67
2022/07/06 09:50:59;;;;;;;4.30;2.00;;;;;;;25.61;53.36;99068.28;105892;1279;99232;-67
2022/07/06 09:53:27;;;;;;;1.80;1.50;;;;;;;25.58;53.10;99072.04;105935;1278;96664;-67
2022/07/06 09:56:01;;;;;;;1.60;1.50;;;;;;;25.30;52.92;99083.02;105888;1278;114539;-66
2022/07/06 09:58:29;;;;;;;4.00;1.40;;;;;;;25.19;52.96;99084.73;105922;1278;99321;-67
2022/07/06 10:01:30;;;;;;;2.30;1.80;;;;;;;25.20;52.72;99079.31;105900;1280;108397;-67
2022/07/06 10:03:58;;;;;;;1.80;1.50;;;;;;;25.27;52.79;99075.92;105931;1279;99276;-68
2022/07/06 10:06:31;;;;;;;6.40;1.80;;;;;;;25.26;52.46;99081.29;105963;1278;96646;-67
2022/07/06 10:09:05;;;;;;;4.80;1.50;;;;;;;25.29;52.55;99083.85;105910;1279;112800;-69
2022/07/06 10:11:54;;;;;;;4.80;1.80;;;;;;;25.28;52.36;99082.00;105927;1279;99243;-67
2022/07/06 10:14:25;;;;;;;3.60;1.70;;;;;;;25.24;52.13;99082.30;105915;1277;107757;-67
2022/07/06 10:16:58;;;;;;;4.80;2.10;;;;;;;25.26;52.10;99076.85;105902;1278;99351;-68
2022/07/06 10:19:30;;;;;;;3.00;1.70;;;;;;;25.31;52.25;99073.59;105923;1279;99306;-68
2022/07/06 10:22:02;;;;;;;2.40;2.00;;;;;;;25.31;51.94;99070.58;105898;1278;112960;-67
2022/07/06 10:24:39;;;;;;;5.50;1.60;;;;;;;25.15;51.74;99065.14;105933;1279;96621;-67
2022/07/06 10:27:14;;;;;;;6.70;1.90;;;;;;;25.00;51.67;99057.80;105954;1278;107742;-65
2022/07/06 10:29:42;;;;;;;2.50;1.70;;;;;;;24.94;51.59;99052.59;105934;1279;99235;-68
2022/07/06 10:32:18;;;;;;;4.30;2.00;;;;;;;24.86;51.48;99053.47;105910;1278;99112;-68
2022/07/06 10:34:47;;;;;;;4.40;1.90;;;;;;;24.85;51.49;99056.39;105949;1277;111867;-68
2022/07/06 10:37:27;;;;;;;5.30;1.80;;;;;;;24.80;51.22;99059.11;106001;1278;99330;-68
2022/07/06 10:42:58;;;;;;;3.50;2.20;;;;;;;24.73;51.10;99054.67;105889;1277;96623;-68
2022/07/06 10:45:26;;;;;;;7.40;1.80;;;;;;;24.67;50.93;99059.19;105888;1277;98213;-68
2022/07/06 10:48:12;;;;;;;7.10;2.60;;;;;;;24.71;50.89;99060.92;105879;1277;112397;-67
2022/07/06 10:50:52;;;;;;;3.10;1.90;;;;;;;24.69;50.67;99058.53;105917;1275;99252;-66
2022/07/06 10:53:44;;;;;;;3.40;2.30;;;;;;;24.67;50.71;99060.36;105949;1277;107790;-67
2022/07/06 10:56:12;;;;;;;3.60;2.40;;;;;;;24.59;50.45;99067.91;105948;1278;100005;-67
2022/07/06 10:58:52;;;;;;;5.50;2.10;;;;;;;24.45;50.29;99066.77;105958;1278;100355;-67
2022/07/06 11:01:29;;;;;;;5.80;2.30;;;;;;;24.36;50.20;99067.05;105914;1280;113514;-66
2022/07/06 11:03:57;;;;;;;4.40;2.10;;;;;;;24.27;50.14;99062.49;105935;1278;96558;-68
2022/07/06 11:06:32;;;;;;;3.10;2.20;;;;;;;24.17;49.92;99068.51;105790;1278;108414;-67
2022/07/06 11:09:09;;;;;;;4.60;2.40;;;;;;;24.08;49.98;99064.89;105911;1278;100021;-67
2022/07/06 11:11:45;;;;;;;5.40;2.30;;;;;;;24.10;50.07;99059.27;106791;1277;99199;-66
2022/07/06 11:14:18;;;;;;;3.50;2.20;;;;;;;24.20;50.06;99052.92;107309;1277;113335;-66
2022/07/06 11:16:46;;;;;;;3.20;2.50;;;;;;;24.33;49.90;99056.33;106786;1277;98514;-67
2022/07/06 11:19:17;;;;;;;6.30;2.50;;;;;;;24.35;49.74;99056.93;107710;1277;108329;-67
2022/07/06 11:21:56;;;;;;;4.20;2.30;;;;;;;24.35;49.72;99056.97;106967;1277;98427;-68
2022/07/06 11:24:31;;;;;;;2.90;2.30;;;;;;;24.49;49.74;99051.63;105949;1277;99233;-70
2022/07/06 11:27:03;;;;;;;6.00;2.50;;;;;;;24.61;49.57;99057.25;105971;1277;112476;-66
2022/07/06 11:29:31;;;;;;;4.50;2.30;;;;;;;24.71;49.42;99057.11;105976;1277;99227;-68
2022/07/06 11:32:04;;;;;;;4.40;2.30;;;;;;;24.68;49.32;99058.46;105969;1278;108450;-69
2022/07/06 11:34:37;;;;;;;6.20;2.40;;;;;;;24.65;49.28;99055.71;105945;1278;99343;-67
2022/07/06 11:37:14;;;;;;;4.80;2.50;;;;;;;24.57;49.12;99057.23;105934;1278;99228;-68
2022/07/06 11:39:44;;;;;;;3.50;2.50;;;;;;;24.56;49.08;99060.08;105932;1278;112742;-67
2022/07/06 11:42:17;;;;;;;6.40;3.00;;;;;;;24.56;49.02;99051.66;105943;1278;99262;-67
2022/07/06 11:44:50;;;;;;;;;;;;;;;24.57;48.99;99049.98;105935;1278;107760;-68
2022/07/06 11:47:18;;;;;;;4.50;2.70;;;;;;;24.50;48.92;99050.84;105889;1277;97701;-68